Haikou, China

07:01 AM CST on September 25, 2017 (GMT +0800)
Haikou | | Change Station

Elev 210 ft 20.00 °N, 110.25 °E | Updated 1 hour ago

Växlande molnighet
Växlande molnighet
81 °F
Feels Like 86 °F
N
9
Vind Växlande Vind from S/SO

Idag
High -- | Low -- °F
--% Chance of Precip.
Yesterday
High -- | Low -- °F
Precip. -- tum
Lufttryck 29.65 tum
Sikt 6.2 miles
Molnigt Few 4600 ft
Värmeindex 86 °F
Daggpunkt 75 °F
Luftfuktighet 84%
Rainfall 0.00 tum
Snow Depth Not available.
6:28 AM 6:33 PM
Första kvarteret, 22% visible
METAR ZJHK 242200Z 15004MPS 120V190 9999 FEW046 27/24 Q1004 NOSIG
Lufttryck 29.65 tum
Sikt 6.2 miles
Molnigt Few 4600 ft
Värmeindex 86 °F
Daggpunkt 75 °F
Luftfuktighet 84%
Rainfall 0.00 tum
Snow Depth Not available.
6:28 AM 6:33 PM
Första kvarteret, 22% visible
METAR ZJHK 242200Z 15004MPS 120V190 9999 FEW046 27/24 Q1004 NOSIG

Get Severe Weather Alerts

Thanks for signing up!

Be on the lookout for a verification email in your inbox.

You'll start receiving the daily forecast at 6 AM.

×

10-Day Weather Forecast

No radar image for this location.
×

Almanac

Astronomi

Sep. 25, 2017 Rise Set
Actual Time
Civil Twilight
Nautical Twilight
Astronomical Twilight
Månen
Length Of Visible Light
Dagens längd
Tomorrow will be .
, % of the Moon is Illuminated

Today's Extremes

Country Highs Country Lows

Community

WunderPhotos

Category 6

Welcome to Category 6. This is the collective home for Weather Underground's featured writeups by Dr. Jeff Masters (right), Bob Henson (left), Chris Burt, and other regular contributors.

Nearby

Air Quality

  Air Quality AQ Index Pollutant
Not available.

Snödjup

Station Depth Elevation

Earthquake Activity

Stad Distance Mag. Time & Date
Minimum magnitude displayed is 2.5.

Coastal Water Temperatures

Plats Temperatur

Stations

Nearby Weather Stations

Station Location Temp Vindavkylning Daggpunkt Luftfuktighet Vind Precip. Elev Uppdaterad Type